Terminal Aerodrome Forecast
Issued by NWS

Home | Current Version | Previous Version | Text Only | Print | Product List | Glossary On
Versions: 1 2 3 4 5 6 7 8 9 10 11 12 13 14 15 16 17 18 19 20 21 22 23 24
400
FTAK31 PAJN 120041 AAA
TAFAKT
TAF AMD
PAKT 120041Z 1201/1224 VRB06KT P6SM FEW040 BKN080
      TEMPO 1202/1206 13010G20KT -RA BKN025
     FM120600 13012G20KT P6SM -RA SCT015 OVC025 WS020/14035KT
     FM121200 13010G20KT 4SM RA BR BKN015 OVC025 WS020/14035KT
     FM121700 18010KT P6SM -SHRA SCT015 OVC025
     FM122100 16006KT P6SM VCSH SCT025 OVC050=

USA.gov is the U.S. government's official web portal to all federal, state and local government web resources and services.